Southport, NC

1:43 PM EST on March 01, 2017 (GMT -0500)
Cape Fear Pilots Station | | Change Station

Elev 50 ft 33.92 °N, 78.02 °W | Updated 11 seconds ago

Mostly Cloudy
Mostly Cloudy
67.2 °F
Feels Like 67.2 °F
N
25.0
Wind Variable Wind from SW
Gusts 30.0 mph

Today
High -- | Low -- °F
--% Chance of Precip.
Yesterday
High -- | Low -- °F
Precip. -- in
Pressure 30.00 in
Visibility 7.0 miles
Clouds Mostly Cloudy 800 ft
Dew Point 67 °F
Humidity 98%
Rainfall 0.00 in
Snow Depth Not available.
6:40 AM 6:08 PM
Waxing Crescent, 12% visible
METAR KSUT 011835Z AUTO 21012G17KT 7SM BKN008 21/18 A3000 RMK AO2 T02120180
Pressure 30.00 in
Visibility 7.0 miles
Clouds Mostly Cloudy 800 ft
Dew Point 67 °F
Humidity 98%
Rainfall 0.00 in
Snow Depth Not available.
6:40 AM 6:08 PM
Waxing Crescent, 12% visible
METAR KSUT 011835Z AUTO 21012G17KT 7SM BKN008 21/18 A3000 RMK AO2 T02120180

Get Your Daily Forecast Email!

Thanks for signing up!

Be on the lookout for a verification email in your inbox.

You'll start receiving the daily forecast at 8 AM.

×

10-Day Weather Forecast

Almanac

Astronomy

Mar. 01, 2017 Rise Set
Actual Time
Civil Twilight
Nautical Twilight
Astronomical Twilight
Moon
Length of Visible Light
Length of Day
Tomorrow will be .
, % of the Moon is Illuminated

Today's Extremes

State Highs State Lows

Community

WunderPhotos

Upload Photos

1,962,540 photos uploaded!

WunderBlog® & News

Nearby

Air Quality

  Air Quality AQ Index Pollutant
Not available.

Snow Depth

Station Depth Elevation

Earthquake Activity

City Distance Mag. Time & Date
Minimum magnitude displayed is 2.5.

Coastal Water Temperatures

Place Temperature

Stations

Nearby Weather Stations

Station Location Temp. Windchill Dew Point Humidity Wind Precip. Elev Updated Type
                   

Watches & Warnings

There are currently no watches in effect.